Latest Weather Observations for Salmon Gums RS

IDW60801

Issued at 10:04 pm WST Saturday 23 January 2021 (issued every 10 minutes, with the page automatically refreshed every 10 minutes)

About weather observations | Map of weather stations | Latest weather observations for WA | Other Formats
Station Details ID: 012071 Name: SALMON GUMS RES.STN. Lat: -32.99 Lon: 121.62 Height: 249.0 m
Data from the previous 72 hours. | See also: Recent months at Salmon Gums RS
Date/Time
WST
Temp
°C
App
Temp
°C
Dew
Point
°C
Rel
Hum
%
Delta-T
°C
Wind Press
QNH
hPa
Press
MSL
hPa
Rain since
9am
mm
Dir  Spd
km/h
Gust
km/h
Spd
kts
Gust
kts
23/10:00pm 18.1 17.7 16.3 89 1.1 SSW 13 20 7 11 - - 7.2
23/09:30pm 18.6 17.6 16.6 88 1.2 SSW 17 24 9 13 - - 7.2
23/09:00pm 19.4 18.9 17.0 86 1.5 S 15 20 8 11 - - 7.2
23/08:30pm 20.1 21.2 17.9 87 1.4 SSW 9 17 5 9 - - 7.2
23/08:00pm 20.8 21.7 18.4 86 1.5 S 11 19 6 10 - - 7.2
23/07:30pm 21.4 22.5 18.8 85 1.7 S 11 17 6 9 - - 7.2
23/07:00pm 22.1 23.6 18.9 82 2.0 S 9 13 5 7 - - 7.2
23/06:30pm 22.5 24.4 18.9 80 2.3 SW 7 11 4 6 - - 7.2
23/06:00pm 25.1 26.2 19.7 72 3.5 SE 13 20 7 11 - - 7.2
23/05:30pm 24.2 25.1 20.1 78 2.7 SE 15 20 8 11 - - 7.2
23/05:00pm 23.0 23.5 20.1 84 1.9 E 17 28 9 15 - - 7.2
23/04:30pm 23.4 24.5 20.5 84 1.9 ENE 15 20 8 11 - - 5.8
23/04:00pm 23.9 25.0 20.4 81 2.3 SSW 15 24 8 13 - - 5.2
23/03:30pm 22.4 21.3 19.4 83 1.9 S 24 39 13 21 - - 5.0
23/03:08pm 22.3 16.6 17.7 75 2.9 S 44 63 24 34 - - 2.2
23/03:06pm 23.5 17.6 16.8 66 4.2 S 43 59 23 32 - - 1.2
23/03:00pm 29.4 23.3 16.2 44 8.3 S 43 67 23 36 - - 0.0
23/02:50pm 31.8 29.2 14.9 36 10.5 SSE 22 56 12 30 - - 0.0
23/02:30pm 35.9 32.8 11.5 23 14.6 NNE 19 32 10 17 - - 0.0
23/02:00pm 39.0 36.9 11.2 19 16.8 NNE 13 26 7 14 - - 0.0
23/01:30pm 40.2 35.8 7.6 14 18.8 NW 20 33 11 18 - - 0.0
23/01:00pm 39.7 36.1 11.7 19 17.1 NW 22 43 12 23 - - 0.0
23/12:30pm 40.1 37.1 12.1 19 17.2 NW 19 28 10 15 - - 0.0
23/12:00pm 38.8 34.4 11.8 20 16.4 NW 26 41 14 22 - - 0.0
23/11:30am 38.5 33.7 11.5 20 16.3 NNW 28 50 15 27 - - 0.0
23/11:24am 38.2 33.3 11.3 20 16.2 NNW 28 50 15 27 - - 0.0
23/11:00am 36.5 30.3 9.2 19 15.9 NW 32 48 17 26 - - 0.0
23/10:33am 37.7 32.7 10.9 20 16.0 NNW 28 48 15 26 - - 0.0
23/10:30am 36.8 32.2 10.9 21 15.4 NNW 26 48 14 26 - - 0.0
23/10:00am 35.4 30.6 11.7 23 14.2 NNW 28 44 15 24 - - 0.0
23/09:30am 34.5 29.9 12.2 26 13.4 NNW 28 48 15 26 - - 0.0
23/09:11am 34.0 29.4 12.4 27 13.0 NW 28 46 15 25 - - 0.0
23/09:00am 33.2 28.2 12.2 28 12.6 NW 30 43 16 23 - - 0.0
23/08:30am 33.2 29.9 12.8 29 12.3 NW 22 37 12 20 - - 0.0
23/08:00am 31.7 27.7 13.0 32 11.3 NNW 26 41 14 22 - - 0.0
23/07:30am 30.0 27.6 13.7 37 9.9 NNW 19 39 10 21 - - 0.0
23/07:00am 29.0 26.4 13.2 37 9.5 NNW 19 26 10 14 - - 0.0
23/06:30am 28.7 26.5 13.4 39 9.2 NNW 17 26 9 14 - - 0.0
23/06:00am 28.5 26.3 13.2 39 9.1 N 17 28 9 15 - - 0.0
23/05:30am 29.0 25.7 12.8 36 9.6 NNW 22 35 12 19 - - 0.0
23/05:00am 29.1 26.4 12.9 37 9.7 NNW 19 35 10 19 - - 0.0
23/04:30am 29.3 25.5 12.3 35 10.0 NNW 24 35 13 19 - - 0.0
23/04:00am 29.8 26.8 11.8 33 10.6 NNW 19 32 10 17 - - 0.0
23/03:30am 29.4 27.9 11.9 34 10.3 NW 11 22 6 12 - - 0.0
23/03:00am 28.6 26.3 12.9 38 9.3 N 17 28 9 15 - - 0.0
23/02:30am 24.5 24.3 13.7 51 6.4 E 7 9 4 5 - - 0.0
23/02:00am 24.2 23.8 13.1 50 6.5 NW 7 11 4 6 - - 0.0
23/01:30am 23.9 24.2 13.4 51 6.2 NNE 4 6 2 3 - - 0.0
23/01:00am 23.7 24.7 13.3 52 6.1 CALM 0 0 0 0 - - 0.0
23/12:30am 24.6 24.5 13.2 49 6.7 SW 6 9 3 5 - - 0.0
23/12:00am 27.0 26.5 11.9 39 8.8 W 6 20 3 11 - - 0.0
 
Date/Time
WST
Temp
°C
App
Temp
°C
Dew
Point
°C
Rel
Hum
%
Delta-T
°C
Wind Press
QNH
hPa
Press
MSL
hPa
Rain since
9am
mm
Dir  Spd
km/h
Gust
km/h
Spd
kts
Gust
kts
22/11:30pm 26.4 25.3 12.1 41 8.3 E 9 11 5 6 - - 0.0
22/11:00pm 26.9 26.1 11.8 39 8.8 NE 7 13 4 7 - - 0.0
22/10:30pm 27.6 24.6 9.4 32 10.2 E 15 20 8 11 - - 0.0
22/10:00pm 27.8 24.9 9.6 32 10.2 ENE 15 24 8 13 - - 0.0
22/09:30pm 27.9 25.4 9.7 32 10.2 ESE 13 17 7 9 - - 0.0
22/09:00pm 28.6 25.7 9.8 31 10.6 ESE 15 19 8 10 - - 0.0
22/08:30pm 29.5 27.1 10.1 30 11.1 ESE 13 20 7 11 - - 0.0
22/08:00pm 29.5 26.9 10.6 31 10.9 SE 15 20 8 11 - - 0.0
22/07:30pm 29.5 27.0 12.4 35 10.1 SSE 17 24 9 13 - - 0.0
22/07:00pm 30.7 27.7 12.6 33 10.8 SSE 20 30 11 16 - - 0.0
22/06:30pm 32.1 28.3 12.3 29 11.8 SSE 24 37 13 20 - - 0.0
22/06:00pm 33.8 29.0 11.6 26 13.2 SSE 28 37 15 20 - - 0.0
22/05:30pm 35.6 30.5 11.9 24 14.3 SSE 30 41 16 22 - - 0.0
22/05:00pm 37.4 32.3 10.7 20 15.9 SSE 28 37 15 20 - - 0.0
22/04:30pm 38.9 35.8 5.5 13 18.6 SE 11 20 6 11 - - 0.0
22/04:00pm 38.7 35.2 5.4 13 18.5 E 13 24 7 13 - - 0.0
22/03:30pm 39.0 35.5 5.6 13 18.6 ESE 13 24 7 13 - - 0.0
22/03:00pm 38.9 35.0 5.5 13 18.6 E 15 24 8 13 - - 0.0
22/02:30pm 38.5 35.6 6.3 14 18.1 ENE 11 20 6 11 - - 0.0
22/02:00pm 37.4 33.5 5.4 14 17.6 E 15 22 8 12 - - 0.0
22/01:30pm 37.4 34.1 6.4 15 17.3 ESE 13 24 7 13 - - 0.0
22/01:00pm 36.8 33.6 6.9 16 16.8 ESE 13 24 7 13 - - 0.0
22/12:30pm 35.5 31.5 6.7 17 16.0 ESE 17 26 9 14 - - 0.0
22/12:00pm 35.2 31.3 7.3 18 15.7 E 17 28 9 15 - - 0.0
22/11:30am 34.1 29.7 7.2 19 15.0 E 20 30 11 16 - - 0.0
22/11:00am 32.7 28.5 7.5 21 14.0 ESE 19 30 10 16 - - 0.0
22/10:30am 31.1 27.0 8.8 25 12.6 E 20 39 11 21 - - 0.0
22/10:00am 28.8 24.7 10.0 31 10.7 E 22 33 12 18 - - 0.0
22/09:30am 26.7 23.6 11.6 39 8.7 ESE 19 28 10 15 - - 0.0
22/09:00am 24.2 22.0 13.4 51 6.4 ESE 17 24 9 13 - - 0.0
22/08:30am 22.7 21.5 14.0 58 5.1 SE 13 20 7 11 - - 0.0
22/08:00am 21.3 19.6 14.7 66 3.9 SE 17 22 9 12 - - 0.0
22/07:30am 19.6 17.9 14.6 73 2.9 SE 17 22 9 12 - - 0.0
22/07:00am 18.1 16.8 14.8 81 1.9 SE 15 24 8 13 - - 0.0
22/06:30am 17.0 15.1 14.3 84 1.6 SE 17 22 9 12 - - 0.0
22/06:00am 16.5 15.0 14.2 86 1.3 SSE 15 20 8 11 - - 0.0
22/05:30am 16.0 14.4 13.8 87 1.3 SSE 15 20 8 11 - - 0.0
22/05:00am 16.1 14.8 13.8 86 1.3 SSE 13 17 7 9 - - 0.0
22/04:30am 16.4 14.8 13.9 85 1.4 SSE 15 19 8 10 - - 0.0
22/04:00am 16.5 14.9 13.8 84 1.5 SSE 15 20 8 11 - - 0.0
22/03:30am 16.9 15.3 14.0 83 1.7 SE 15 22 8 12 - - 0.0
22/03:00am 16.9 15.3 14.0 83 1.7 SE 15 20 8 11 - - 0.0
22/02:30am 16.7 14.7 14.0 84 1.6 SE 17 24 9 13 - - 0.0
22/02:00am 16.5 14.0 14.0 85 1.4 SSE 20 28 11 15 - - 0.0
22/01:30am 16.4 14.1 14.2 87 1.3 SSE 19 24 10 13 - - 0.0
22/01:00am 16.2 14.3 14.2 88 1.2 SSE 17 24 9 13 - - 0.0
22/12:30am 15.9 14.6 13.7 87 1.3 S 13 15 7 8 - - 0.0
22/12:00am 16.1 14.8 13.8 86 1.3 SSE 13 17 7 9 - - 0.0
 
Date/Time
WST
Temp
°C
App
Temp
°C
Dew
Point
°C
Rel
Hum
%
Delta-T
°C
Wind Press
QNH
hPa
Press
MSL
hPa
Rain since
9am
mm
Dir  Spd
km/h
Gust
km/h
Spd
kts
Gust
kts
21/11:30pm 16.3 14.7 14.0 86 1.3 S 15 24 8 13 - - 0.0
21/11:00pm 16.5 15.3 14.0 85 1.4 SSE 13 20 7 11 - - 0.0
21/10:30pm 16.9 15.8 14.2 84 1.6 S 13 17 7 9 - - 0.0
21/10:00pm 17.2 15.7 14.3 83 1.7 SSE 15 20 8 11 - - 0.0
21/09:30pm 17.3 14.9 14.4 83 1.7 S 20 28 11 15 - - 0.0
21/09:00pm 17.5 15.3 14.4 82 1.8 S 19 26 10 14 - - 0.0
21/08:30pm 17.8 15.4 14.3 80 2.0 S 20 28 11 15 - - 0.0
21/08:00pm 18.5 16.3 14.4 77 2.4 S 19 28 10 15 - - 0.0
21/07:30pm 19.5 16.7 14.3 72 3.0 S 22 30 12 16 - - 0.0
21/07:00pm 20.7 17.2 14.4 67 3.7 S 26 35 14 19 - - 0.0
21/06:30pm 22.6 18.0 13.4 56 5.4 S 30 43 16 23 - - 0.0
21/06:00pm 25.0 20.4 13.5 48 6.8 S 30 46 16 25 - - 0.0
21/05:30pm 26.0 21.0 13.5 46 7.4 S 32 43 17 23 - - 0.0
21/05:00pm 27.3 22.4 12.5 40 8.7 S 30 41 16 22 - - 0.0
21/04:30pm 27.9 22.7 13.4 40 8.7 S 33 44 18 24 - - 0.0
21/04:00pm 28.6 23.3 14.1 41 8.8 S 35 46 19 25 - - 0.0
21/03:30pm 31.0 25.1 13.7 34 10.5 SSW 37 50 20 27 - - 0.0
21/03:00pm 33.8 29.1 13.3 29 12.5 S 30 39 16 21 - - 0.0
21/02:30pm 35.3 31.9 10.4 22 14.7 S 19 32 10 17 - - 0.0
21/02:00pm 34.1 30.9 10.0 23 14.0 SSE 17 32 9 17 - - 0.0
21/01:30pm 33.6 31.1 10.9 25 13.4 SSE 15 30 8 16 - - 0.0
21/01:00pm 32.9 30.9 11.4 27 12.7 S 13 26 7 14 - - 0.0
21/12:30pm 31.4 29.5 11.7 29 11.6 SE 13 22 7 12 - - 0.0
21/12:00pm 31.6 29.8 13.4 33 11.0 SSE 15 30 8 16 - - 0.0
21/11:30am 29.5 28.2 12.4 35 10.1 SE 11 24 6 13 - - 0.0
21/11:00am 29.7 27.7 12.6 35 10.2 SSE 15 22 8 12 - - 0.0
21/10:30am 27.5 25.2 13.1 41 8.6 SSE 17 28 9 15 - - 0.0
21/10:00am 26.5 24.4 14.6 48 7.2 SSE 19 26 10 14 - - 0.0
21/09:30am 25.4 23.7 15.7 55 6.0 SSE 19 26 10 14 - - 0.0
21/09:00am 23.9 22.4 16.2 62 4.7 S 19 39 10 21 - - 0.0
21/08:30am 23.2 21.9 16.7 67 4.0 S 19 24 10 13 - - 0.0
21/08:00am 21.3 20.0 16.9 76 2.7 S 19 26 10 14 - - 0.0
21/07:30am 19.5 18.2 16.7 84 1.7 S 19 26 10 14 - - 0.0
21/07:00am 18.0 16.5 16.3 90 1.0 S 19 26 10 14 - - 0.0
21/06:30am 17.1 15.2 15.8 92 0.8 S 20 28 11 15 - - 0.0
21/06:00am 16.7 15.2 15.4 92 0.8 S 17 26 9 14 - - 0.0
21/05:30am 16.2 14.6 14.9 92 0.8 S 17 22 9 12 - - 0.0
21/05:00am 15.9 14.1 14.4 91 0.9 SSW 17 24 9 13 - - 0.0
21/04:30am 15.6 14.0 13.8 89 1.0 SSW 15 24 8 13 - - 0.0
21/04:00am 15.9 15.1 14.1 89 1.0 SSW 11 17 6 9 - - 0.0
21/03:30am 16.1 16.1 14.1 88 1.1 S 7 13 4 7 - - 0.0
21/03:00am 16.4 16.0 14.1 86 1.3 S 9 15 5 8 - - 0.0
21/02:30am 16.6 16.4 13.7 83 1.7 SSE 7 11 4 6 - - 0.0
21/02:00am 16.8 16.3 13.7 82 1.8 S 9 15 5 8 - - 0.0
21/01:30am 16.9 16.8 13.4 80 2.0 S 6 9 3 5 - - 0.0
21/01:00am 17.0 16.8 13.5 80 2.0 S 7 11 4 6 - - 0.0
21/12:30am 17.7 17.5 13.6 77 2.4 SSW 7 13 4 7 - - 0.0
21/12:00am 18.1 18.2 14.4 79 2.2 SSW 7 15 4 8 - - 0.0
 
Date/Time
WST
Temp
°C
App
Temp
°C
Dew
Point
°C
Rel
Hum
%
Delta-T
°C
Wind Press
QNH
hPa
Press
MSL
hPa
Rain since
9am
mm
Dir  Spd
km/h
Gust
km/h
Spd
kts
Gust
kts
20/11:30pm 18.7 20.0 14.2 75 2.6 CALM 0 0 0 0 - - 0.0
20/11:00pm 19.5 20.3 13.7 69 3.4 SE 2 6 1 3 - - 0.0
20/10:30pm 20.8 20.3 12.5 59 4.7 SSW 7 9 4 5 - - 0.0

Other formats

Comma delimited format used in spreadsheet applications
http://www.bom.gov.au/fwo/IDW60801/IDW60801.95639.axf

JavaScript Object Notation format (JSON) in row-major order
http://www.bom.gov.au/fwo/IDW60801/IDW60801.95639.json

Data quality

Most of these data are generated automatically and are frequently updated. Quality checks on data are not normally performed. It is possible for incorrect values to appear. Refer to information at About Latest Weather Observations and please check the disclaimer before using these data.